sensor_id;sensor_type;location;lat;lon;timestamp;pressure;altitude;pressure_sealevel;temperature;humidity
31062;BME280;17724;53.546;9.974;2023-10-09T00:03:43;102098.59;;;13.10;100.00
31062;BME280;17724;53.546;9.974;2023-10-09T00:07:44;102098.34;;;13.23;100.00
31062;BME280;17724;53.546;9.974;2023-10-09T00:11:46;102072.72;;;13.28;100.00
31062;BME280;17724;53.546;9.974;2023-10-09T00:15:48;102041.38;;;13.22;100.00
31062;BME280;17724;53.546;9.974;2023-10-09T00:19:53;102011.84;;;12.82;100.00
31062;BME280;17724;53.546;9.974;2023-10-09T00:23:59;102007.69;;;12.56;100.00
31062;BME280;17724;53.546;9.974;2023-10-09T00:28:03;101989.78;;;12.71;100.00
31062;BME280;17724;53.546;9.974;2023-10-09T00:32:19;101998.81;;;12.66;100.00
31062;BME280;17724;53.546;9.974;2023-10-09T00:36:23;101988.22;;;12.75;100.00
31062;BME280;17724;53.546;9.974;2023-10-09T00:40:31;101989.84;;;12.36;100.00
31062;BME280;17724;53.546;9.974;2023-10-09T00:44:34;101981.31;;;12.49;100.00
31062;BME280;17724;53.546;9.974;2023-10-09T00:48:41;101969.47;;;12.25;100.00
31062;BME280;17724;53.546;9.974;2023-10-09T00:52:44;101944.88;;;12.23;100.00
31062;BME280;17724;53.546;9.974;2023-10-09T00:56:54;101932.66;;;12.19;100.00
31062;BME280;17724;53.546;9.974;2023-10-09T01:00:59;101915.91;;;12.09;100.00
31062;BME280;17724;53.546;9.974;2023-10-09T01:04:59;101925.56;;;11.76;100.00
31062;BME280;17724;53.546;9.974;2023-10-09T01:09:14;101932.25;;;11.80;100.00
31062;BME280;17724;53.546;9.974;2023-10-09T01:13:15;101923.47;;;11.37;100.00
31062;BME280;17724;53.546;9.974;2023-10-09T01:17:18;101922.63;;;11.36;100.00
31062;BME280;17724;53.546;9.974;2023-10-09T01:21:30;101914.25;;;11.31;100.00
31062;BME280;17724;53.546;9.974;2023-10-09T01:25:31;101912.22;;;11.38;100.00
31062;BME280;17724;53.546;9.974;2023-10-09T01:29:45;101897.59;;;11.26;100.00
31062;BME280;17724;53.546;9.974;2023-10-09T01:33:46;101883.88;;;11.07;100.00
31062;BME280;17724;53.546;9.974;2023-10-09T01:37:47;101890.25;;;11.20;100.00
31062;BME280;17724;53.546;9.974;2023-10-09T01:41:51;101891.81;;;11.16;100.00
31062;BME280;17724;53.546;9.974;2023-10-09T01:46:06;101893.38;;;11.23;100.00
31062;BME280;17724;53.546;9.974;2023-10-09T01:50:07;101878.56;;;11.48;100.00
31062;BME280;17724;53.546;9.974;2023-10-09T01:54:20;101862.16;;;11.53;100.00
31062;BME280;17724;53.546;9.974;2023-10-09T01:58:37;101858.53;;;11.29;100.00
31062;BME280;17724;53.546;9.974;2023-10-09T02:02:38;101852.91;;;11.12;100.00
31062;BME280;17724;53.546;9.974;2023-10-09T02:06:39;101845.09;;;11.09;100.00
31062;BME280;17724;53.546;9.974;2023-10-09T02:10:40;101817.66;;;10.91;100.00
31062;BME280;17724;53.546;9.974;2023-10-09T02:14:44;101828.41;;;10.80;100.00
31062;BME280;17724;53.546;9.974;2023-10-09T02:18:48;101809.28;;;10.85;100.00
31062;BME280;17724;53.546;9.974;2023-10-09T02:22:56;101817.88;;;10.77;100.00
31062;BME280;17724;53.546;9.974;2023-10-09T02:26:57;101816.59;;;10.92;100.00
31062;BME280;17724;53.546;9.974;2023-10-09T02:30:58;101799.59;;;10.95;100.00
31062;BME280;17724;53.546;9.974;2023-10-09T02:35:01;101834.81;;;11.04;100.00
31062;BME280;17724;53.546;9.974;2023-10-09T02:39:10;101853.84;;;11.06;100.00
31062;BME280;17724;53.546;9.974;2023-10-09T02:43:23;101824.31;;;11.13;100.00
31062;BME280;17724;53.546;9.974;2023-10-09T02:47:26;101812.41;;;10.89;100.00
31062;BME280;17724;53.546;9.974;2023-10-09T02:51:32;101790.59;;;10.76;100.00
31062;BME280;17724;53.546;9.974;2023-10-09T02:55:33;101798.63;;;10.77;100.00
31062;BME280;17724;53.546;9.974;2023-10-09T02:59:39;101783.53;;;10.80;100.00
31062;BME280;17724;53.546;9.974;2023-10-09T03:03:45;101782.34;;;10.76;100.00
31062;BME280;17724;53.546;9.974;2023-10-09T03:07:46;101788.56;;;10.83;100.00
31062;BME280;17724;53.546;9.974;2023-10-09T03:11:48;101780.47;;;11.12;100.00
31062;BME280;17724;53.546;9.974;2023-10-09T03:15:53;101781.19;;;10.95;100.00
31062;BME280;17724;53.546;9.974;2023-10-09T03:19:54;101765.75;;;10.94;100.00
31062;BME280;17724;53.546;9.974;2023-10-09T03:23:55;101754.34;;;10.79;100.00
31062;BME280;17724;53.546;9.974;2023-10-09T03:27:58;101732.22;;;10.74;100.00
31062;BME280;17724;53.546;9.974;2023-10-09T03:31:59;101745.38;;;10.83;100.00
31062;BME280;17724;53.546;9.974;2023-10-09T03:36:00;101742.91;;;10.94;100.00
31062;BME280;17724;53.546;9.974;2023-10-09T03:40:02;101742.25;;;10.68;100.00
31062;BME280;17724;53.546;9.974;2023-10-09T03:44:03;101740.59;;;10.79;100.00
31062;BME280;17724;53.546;9.974;2023-10-09T03:48:06;101737.59;;;10.80;100.00
31062;BME280;17724;53.546;9.974;2023-10-09T03:52:20;101725.75;;;10.80;100.00
31062;BME280;17724;53.546;9.974;2023-10-09T03:56:25;101725.72;;;10.68;100.00
31062;BME280;17724;53.546;9.974;2023-10-09T04:00:28;101710.22;;;10.85;100.00
31062;BME280;17724;53.546;9.974;2023-10-09T04:04:29;101721.34;;;11.02;100.00
31062;BME280;17724;53.546;9.974;2023-10-09T04:08:32;101728.88;;;10.83;100.00
31062;BME280;17724;53.546;9.974;2023-10-09T04:12:33;101724.44;;;10.82;100.00
31062;BME280;17724;53.546;9.974;2023-10-09T04:16:34;101719.03;;;10.76;100.00
31062;BME280;17724;53.546;9.974;2023-10-09T04:20:35;101721.06;;;10.69;100.00
31062;BME280;17724;53.546;9.974;2023-10-09T04:24:45;101725.03;;;10.84;100.00
31062;BME280;17724;53.546;9.974;2023-10-09T04:28:48;101721.22;;;10.74;100.00
31062;BME280;17724;53.546;9.974;2023-10-09T04:32:52;101709.25;;;11.03;100.00
31062;BME280;17724;53.546;9.974;2023-10-09T04:36:56;101701.94;;;10.74;100.00
31062;BME280;17724;53.546;9.974;2023-10-09T04:41:00;101696.66;;;10.72;100.00
31062;BME280;17724;53.546;9.974;2023-10-09T04:45:05;101711.44;;;11.13;100.00
31062;BME280;17724;53.546;9.974;2023-10-09T04:49:06;101707.34;;;10.92;100.00
31062;BME280;17724;53.546;9.974;2023-10-09T04:53:26;101709.63;;;11.19;100.00
31062;BME280;17724;53.546;9.974;2023-10-09T04:57:29;101715.97;;;10.96;100.00
31062;BME280;17724;53.546;9.974;2023-10-09T05:01:30;101716.22;;;11.18;100.00
31062;BME280;17724;53.546;9.974;2023-10-09T05:05:43;101708.78;;;11.06;100.00
31062;BME280;17724;53.546;9.974;2023-10-09T05:09:44;101702.66;;;10.93;100.00
31062;BME280;17724;53.546;9.974;2023-10-09T05:13:56;101692.38;;;11.23;100.00
31062;BME280;17724;53.546;9.974;2023-10-09T05:18:11;101679.81;;;11.16;100.00
31062;BME280;17724;53.546;9.974;2023-10-09T05:22:16;101673.09;;;11.12;100.00
31062;BME280;17724;53.546;9.974;2023-10-09T05:26:35;101675.75;;;11.06;100.00
31062;BME280;17724;53.546;9.974;2023-10-09T05:30:48;101676.56;;;11.30;100.00
31062;BME280;17724;53.546;9.974;2023-10-09T05:34:55;101650.00;;;11.01;100.00
31062;BME280;17724;53.546;9.974;2023-10-09T05:39:02;101664.13;;;10.93;100.00
31062;BME280;17724;53.546;9.974;2023-10-09T05:43:18;101661.63;;;11.15;100.00
31062;BME280;17724;53.546;9.974;2023-10-09T05:47:39;101691.78;;;10.98;100.00
31062;BME280;17724;53.546;9.974;2023-10-09T05:51:48;101673.25;;;10.93;100.00
31062;BME280;17724;53.546;9.974;2023-10-09T05:55:53;101677.88;;;10.81;100.00
31062;BME280;17724;53.546;9.974;2023-10-09T06:00:20;101661.88;;;10.78;100.00
31062;BME280;17724;53.546;9.974;2023-10-09T06:04:40;101675.25;;;10.63;100.00
31062;BME280;17724;53.546;9.974;2023-10-09T06:08:55;101684.19;;;10.46;100.00
31062;BME280;17724;53.546;9.974;2023-10-09T06:13:23;101696.59;;;10.25;100.00
31062;BME280;17724;53.546;9.974;2023-10-09T06:17:37;101682.16;;;10.11;100.00
31062;BME280;17724;53.546;9.974;2023-10-09T06:21:44;101669.91;;;9.96;100.00
31062;BME280;17724;53.546;9.974;2023-10-09T06:25:47;101671.69;;;9.90;100.00
31062;BME280;17724;53.546;9.974;2023-10-09T06:30:03;101674.16;;;10.10;100.00
31062;BME280;17724;53.546;9.974;2023-10-09T06:34:18;101653.00;;;10.10;100.00
31062;BME280;17724;53.546;9.974;2023-10-09T06:38:21;101653.00;;;10.10;100.00
31062;BME280;17724;53.546;9.974;2023-10-09T06:42:33;101639.25;;;10.10;100.00
31062;BME280;17724;53.546;9.974;2023-10-09T06:46:34;101646.78;;;10.15;100.00
31062;BME280;17724;53.546;9.974;2023-10-09T06:50:44;101656.97;;;10.15;100.00
31062;BME280;17724;53.546;9.974;2023-10-09T06:54:56;101642.81;;;9.99;100.00
31062;BME280;17724;53.546;9.974;2023-10-09T06:59:05;101628.31;;;9.92;100.00
31062;BME280;17724;53.546;9.974;2023-10-09T07:03:42;101630.69;;;9.88;100.00
31062;BME280;17724;53.546;9.974;2023-10-09T07:08:04;101617.00;;;10.00;100.00
31062;BME280;17724;53.546;9.974;2023-10-09T07:12:25;101637.81;;;10.08;100.00
31062;BME280;17724;53.546;9.974;2023-10-09T07:16:33;101641.28;;;10.15;100.00
31062;BME280;17724;53.546;9.974;2023-10-09T07:20:57;101644.63;;;10.05;100.00
31062;BME280;17724;53.546;9.974;2023-10-09T07:25:01;101632.66;;;10.00;100.00
31062;BME280;17724;53.546;9.974;2023-10-09T07:29:29;101601.88;;;9.79;100.00
31062;BME280;17724;53.546;9.974;2023-10-09T07:33:29;101640.06;;;9.99;100.00
31062;BME280;17724;53.546;9.974;2023-10-09T07:37:49;101645.91;;;10.03;100.00
31062;BME280;17724;53.546;9.974;2023-10-09T07:41:51;101640.00;;;10.18;100.00
31062;BME280;17724;53.546;9.974;2023-10-09T07:46:17;101624.28;;;10.36;100.00
31062;BME280;17724;53.546;9.974;2023-10-09T07:50:38;101605.38;;;10.28;100.00
31062;BME280;17724;53.546;9.974;2023-10-09T07:54:41;101632.91;;;10.52;100.00
31062;BME280;17724;53.546;9.974;2023-10-09T07:58:50;101622.34;;;10.37;100.00
31062;BME280;17724;53.546;9.974;2023-10-09T08:02:52;101618.41;;;10.33;100.00
31062;BME280;17724;53.546;9.974;2023-10-09T08:07:00;101619.16;;;10.52;100.00
31062;BME280;17724;53.546;9.974;2023-10-09T08:11:07;101613.28;;;10.60;100.00
31062;BME280;17724;53.546;9.974;2023-10-09T08:15:26;101614.97;;;10.38;100.00
31062;BME280;17724;53.546;9.974;2023-10-09T08:19:51;101612.44;;;10.36;100.00
31062;BME280;17724;53.546;9.974;2023-10-09T08:23:54;101616.50;;;10.33;100.00
31062;BME280;17724;53.546;9.974;2023-10-09T08:27:57;101626.44;;;10.34;100.00
31062;BME280;17724;53.546;9.974;2023-10-09T08:31:58;101628.34;;;10.34;100.00
31062;BME280;17724;53.546;9.974;2023-10-09T08:36:18;101629.41;;;10.45;100.00
31062;BME280;17724;53.546;9.974;2023-10-09T08:40:29;101617.09;;;10.35;100.00
31062;BME280;17724;53.546;9.974;2023-10-09T08:44:33;101621.31;;;10.38;100.00
31062;BME280;17724;53.546;9.974;2023-10-09T08:48:35;101619.50;;;10.55;100.00
31062;BME280;17724;53.546;9.974;2023-10-09T08:52:39;101617.50;;;10.86;100.00
31062;BME280;17724;53.546;9.974;2023-10-09T08:56:41;101616.75;;;10.91;100.00
31062;BME280;17724;53.546;9.974;2023-10-09T09:00:49;101612.91;;;11.03;100.00
31062;BME280;17724;53.546;9.974;2023-10-09T09:04:50;101614.94;;;10.96;100.00
31062;BME280;17724;53.546;9.974;2023-10-09T09:08:51;101624.91;;;10.97;100.00
31062;BME280;17724;53.546;9.974;2023-10-09T09:12:59;101613.53;;;10.94;100.00
31062;BME280;17724;53.546;9.974;2023-10-09T09:17:05;101610.03;;;11.10;100.00
31062;BME280;17724;53.546;9.974;2023-10-09T09:21:18;101617.66;;;11.20;100.00
31062;BME280;17724;53.546;9.974;2023-10-09T09:25:39;101607.19;;;10.93;100.00
31062;BME280;17724;53.546;9.974;2023-10-09T09:29:44;101609.69;;;10.95;100.00
31062;BME280;17724;53.546;9.974;2023-10-09T09:33:56;101621.06;;;10.98;100.00
31062;BME280;17724;53.546;9.974;2023-10-09T09:37:58;101619.03;;;11.05;100.00
31062;BME280;17724;53.546;9.974;2023-10-09T09:42:05;101613.75;;;11.04;100.00
31062;BME280;17724;53.546;9.974;2023-10-09T09:46:15;101611.00;;;11.04;100.00
31062;BME280;17724;53.546;9.974;2023-10-09T09:50:16;101607.44;;;11.44;100.00
31062;BME280;17724;53.546;9.974;2023-10-09T09:54:26;101606.41;;;11.33;100.00
31062;BME280;17724;53.546;9.974;2023-10-09T09:58:28;101606.63;;;11.31;100.00
31062;BME280;17724;53.546;9.974;2023-10-09T10:02:44;101609.19;;;11.21;100.00
31062;BME280;17724;53.546;9.974;2023-10-09T10:06:47;101586.44;;;11.14;100.00
31062;BME280;17724;53.546;9.974;2023-10-09T10:10:49;101586.94;;;11.51;100.00
31062;BME280;17724;53.546;9.974;2023-10-09T10:15:05;101564.81;;;11.06;100.00
31062;BME280;17724;53.546;9.974;2023-10-09T10:19:08;101588.22;;;11.20;100.00
31062;BME280;17724;53.546;9.974;2023-10-09T10:23:19;101583.25;;;11.46;100.00
31062;BME280;17724;53.546;9.974;2023-10-09T10:27:21;101569.03;;;11.66;100.00
31062;BME280;17724;53.546;9.974;2023-10-09T10:32:00;101593.41;;;11.86;100.00
31062;BME280;17724;53.546;9.974;2023-10-09T10:36:01;101591.06;;;11.66;100.00
31062;BME280;17724;53.546;9.974;2023-10-09T10:40:06;101592.91;;;11.48;100.00
31062;BME280;17724;53.546;9.974;2023-10-09T10:44:14;101590.81;;;11.39;100.00
31062;BME280;17724;53.546;9.974;2023-10-09T10:48:38;101578.53;;;11.58;100.00
31062;BME280;17724;53.546;9.974;2023-10-09T10:52:39;101585.00;;;11.52;100.00
31062;BME280;17724;53.546;9.974;2023-10-09T10:56:42;101577.91;;;11.56;100.00
31062;BME280;17724;53.546;9.974;2023-10-09T11:00:51;101592.53;;;11.56;100.00
31062;BME280;17724;53.546;9.974;2023-10-09T11:04:58;101588.66;;;11.69;100.00
31062;BME280;17724;53.546;9.974;2023-10-09T11:09:17;101589.63;;;11.63;100.00
31062;BME280;17724;53.546;9.974;2023-10-09T11:13:35;101596.00;;;11.80;100.00
31062;BME280;17724;53.546;9.974;2023-10-09T11:18:03;101566.09;;;11.72;100.00
31062;BME280;17724;53.546;9.974;2023-10-09T11:22:07;101581.56;;;11.85;100.00
31062;BME280;17724;53.546;9.974;2023-10-09T11:26:09;101566.78;;;11.79;100.00
31062;BME280;17724;53.546;9.974;2023-10-09T11:30:32;101573.94;;;11.92;100.00
31062;BME280;17724;53.546;9.974;2023-10-09T11:34:33;101575.88;;;12.08;100.00
31062;BME280;17724;53.546;9.974;2023-10-09T11:38:36;101573.88;;;12.04;100.00
31062;BME280;17724;53.546;9.974;2023-10-09T11:42:36;101568.88;;;12.18;100.00
31062;BME280;17724;53.546;9.974;2023-10-09T11:46:59;101567.88;;;12.07;100.00
31062;BME280;17724;53.546;9.974;2023-10-09T11:51:15;101578.88;;;12.41;100.00
31062;BME280;17724;53.546;9.974;2023-10-09T11:55:19;101578.88;;;12.24;100.00
31062;BME280;17724;53.546;9.974;2023-10-09T11:59:19;101587.81;;;12.48;100.00
31062;BME280;17724;53.546;9.974;2023-10-09T12:03:20;101570.28;;;12.20;100.00
31062;BME280;17724;53.546;9.974;2023-10-09T12:07:24;101570.06;;;12.05;100.00
31062;BME280;17724;53.546;9.974;2023-10-09T12:11:25;101564.59;;;12.44;100.00
31062;BME280;17724;53.546;9.974;2023-10-09T12:15:32;101546.13;;;12.44;100.00
31062;BME280;17724;53.546;9.974;2023-10-09T12:19:38;101560.91;;;12.55;100.00
31062;BME280;17724;53.546;9.974;2023-10-09T12:23:39;101559.00;;;12.39;100.00
31062;BME280;17724;53.546;9.974;2023-10-09T12:27:41;101547.63;;;12.35;100.00
31062;BME280;17724;53.546;9.974;2023-10-09T12:31:43;101556.91;;;12.46;100.00
31062;BME280;17724;53.546;9.974;2023-10-09T12:35:45;101567.28;;;12.39;100.00
31062;BME280;17724;53.546;9.974;2023-10-09T12:39:47;101561.66;;;12.50;100.00
31062;BME280;17724;53.546;9.974;2023-10-09T12:43:48;101555.84;;;12.86;100.00
31062;BME280;17724;53.546;9.974;2023-10-09T12:47:48;101561.69;;;12.89;100.00
31062;BME280;17724;53.546;9.974;2023-10-09T12:51:49;101571.25;;;13.03;100.00
31062;BME280;17724;53.546;9.974;2023-10-09T12:55:49;101564.66;;;12.66;100.00
31062;BME280;17724;53.546;9.974;2023-10-09T12:59:50;101557.09;;;12.78;100.00
31062;BME280;17724;53.546;9.974;2023-10-09T13:03:51;101557.72;;;13.02;100.00
31062;BME280;17724;53.546;9.974;2023-10-09T13:07:52;101556.75;;;13.13;100.00
31062;BME280;17724;53.546;9.974;2023-10-09T13:11:53;101554.34;;;13.00;100.00
31062;BME280;17724;53.546;9.974;2023-10-09T13:15:54;101559.19;;;13.10;100.00
31062;BME280;17724;53.546;9.974;2023-10-09T13:19:54;101479.44;;;12.69;100.00
31062;BME280;17724;53.546;9.974;2023-10-09T13:23:56;101552.84;;;13.31;100.00
31062;BME280;17724;53.546;9.974;2023-10-09T13:27:57;101545.84;;;13.45;100.00
31062;BME280;17724;53.546;9.974;2023-10-09T13:31:58;101556.06;;;13.45;100.00
31062;BME280;17724;53.546;9.974;2023-10-09T13:36:03;101562.66;;;13.44;100.00
31062;BME280;17724;53.546;9.974;2023-10-09T13:40:03;101562.72;;;13.49;100.00
31062;BME280;17724;53.546;9.974;2023-10-09T13:44:11;101561.03;;;13.48;100.00
31062;BME280;17724;53.546;9.974;2023-10-09T13:48:12;101556.78;;;13.62;100.00
31062;BME280;17724;53.546;9.974;2023-10-09T13:52:12;101560.16;;;13.42;100.00
31062;BME280;17724;53.546;9.974;2023-10-09T13:56:18;101538.63;;;13.44;100.00
31062;BME280;17724;53.546;9.974;2023-10-09T14:00:19;101561.16;;;13.58;100.00
31062;BME280;17724;53.546;9.974;2023-10-09T14:04:32;101542.94;;;13.57;100.00
31062;BME280;17724;53.546;9.974;2023-10-09T14:08:34;101551.63;;;13.71;100.00
31062;BME280;17724;53.546;9.974;2023-10-09T14:12:35;101552.25;;;13.78;100.00
31062;BME280;17724;53.546;9.974;2023-10-09T14:16:40;101554.03;;;13.89;100.00
31062;BME280;17724;53.546;9.974;2023-10-09T14:20:43;101552.03;;;13.85;100.00
31062;BME280;17724;53.546;9.974;2023-10-09T14:24:47;101554.91;;;13.95;100.00
31062;BME280;17724;53.546;9.974;2023-10-09T14:28:48;101557.13;;;13.98;100.00
31062;BME280;17724;53.546;9.974;2023-10-09T14:32:49;101545.72;;;13.89;100.00
31062;BME280;17724;53.546;9.974;2023-10-09T14:36:55;101545.41;;;13.86;100.00
31062;BME280;17724;53.546;9.974;2023-10-09T14:40:56;101536.63;;;13.94;100.00
31062;BME280;17724;53.546;9.974;2023-10-09T14:45:00;101544.19;;;14.03;100.00
31062;BME280;17724;53.546;9.974;2023-10-09T14:49:00;101557.69;;;14.00;100.00
31062;BME280;17724;53.546;9.974;2023-10-09T14:53:01;101549.66;;;13.98;100.00
31062;BME280;17724;53.546;9.974;2023-10-09T14:57:02;101537.91;;;14.13;100.00
31062;BME280;17724;53.546;9.974;2023-10-09T15:01:12;101546.13;;;14.03;100.00
31062;BME280;17724;53.546;9.974;2023-10-09T15:05:15;101553.13;;;14.16;100.00
31062;BME280;17724;53.546;9.974;2023-10-09T15:09:16;101549.28;;;14.17;100.00
31062;BME280;17724;53.546;9.974;2023-10-09T15:13:23;101559.59;;;14.26;100.00
31062;BME280;17724;53.546;9.974;2023-10-09T15:17:28;101560.69;;;14.25;100.00
31062;BME280;17724;53.546;9.974;2023-10-09T15:21:29;101565.44;;;14.30;100.00
31062;BME280;17724;53.546;9.974;2023-10-09T15:25:32;101565.97;;;14.32;100.00
31062;BME280;17724;53.546;9.974;2023-10-09T15:29:34;101573.56;;;14.42;100.00
31062;BME280;17724;53.546;9.974;2023-10-09T15:33:37;101566.88;;;14.38;100.00
31062;BME280;17724;53.546;9.974;2023-10-09T15:37:40;101584.41;;;14.48;100.00
31062;BME280;17724;53.546;9.974;2023-10-09T15:41:41;101561.66;;;14.41;100.00
31062;BME280;17724;53.546;9.974;2023-10-09T15:45:43;101581.16;;;14.57;100.00
31062;BME280;17724;53.546;9.974;2023-10-09T15:49:44;101584.25;;;14.60;100.00
31062;BME280;17724;53.546;9.974;2023-10-09T15:53:45;101591.16;;;14.63;100.00
31062;BME280;17724;53.546;9.974;2023-10-09T15:57:47;101599.81;;;14.71;100.00
31062;BME280;17724;53.546;9.974;2023-10-09T16:01:50;101586.25;;;14.75;100.00
31062;BME280;17724;53.546;9.974;2023-10-09T16:05:51;101591.28;;;14.83;100.00
31062;BME280;17724;53.546;9.974;2023-10-09T16:09:52;101595.19;;;14.87;100.00
31062;BME280;17724;53.546;9.974;2023-10-09T16:13:53;101594.72;;;15.00;100.00
31062;BME280;17724;53.546;9.974;2023-10-09T16:17:57;101604.47;;;15.08;100.00
31062;BME280;17724;53.546;9.974;2023-10-09T16:22:06;101599.81;;;15.24;100.00
31062;BME280;17724;53.546;9.974;2023-10-09T16:26:06;101604.34;;;15.40;100.00
31062;BME280;17724;53.546;9.974;2023-10-09T16:30:11;101609.38;;;15.48;100.00
31062;BME280;17724;53.546;9.974;2023-10-09T16:34:13;101604.06;;;15.47;100.00
31062;BME280;17724;53.546;9.974;2023-10-09T16:38:15;101617.69;;;15.53;100.00
31062;BME280;17724;53.546;9.974;2023-10-09T16:42:17;101609.88;;;15.40;100.00
31062;BME280;17724;53.546;9.974;2023-10-09T16:46:19;101626.53;;;15.50;100.00
31062;BME280;17724;53.546;9.974;2023-10-09T16:50:22;101632.91;;;15.46;100.00
31062;BME280;17724;53.546;9.974;2023-10-09T16:54:28;101633.44;;;15.43;100.00
31062;BME280;17724;53.546;9.974;2023-10-09T16:58:28;101639.28;;;15.46;100.00
31062;BME280;17724;53.546;9.974;2023-10-09T17:02:29;101645.09;;;15.45;100.00
31062;BME280;17724;53.546;9.974;2023-10-09T17:06:31;101639.03;;;15.48;100.00
31062;BME280;17724;53.546;9.974;2023-10-09T17:10:35;101645.41;;;15.53;100.00
31062;BME280;17724;53.546;9.974;2023-10-09T17:14:37;101649.03;;;15.59;100.00
31062;BME280;17724;53.546;9.974;2023-10-09T17:18:37;101655.69;;;15.53;100.00
31062;BME280;17724;53.546;9.974;2023-10-09T17:22:38;101664.25;;;15.51;100.00
31062;BME280;17724;53.546;9.974;2023-10-09T17:26:39;101668.41;;;15.49;100.00
31062;BME280;17724;53.546;9.974;2023-10-09T17:30:41;101671.78;;;15.56;100.00
31062;BME280;17724;53.546;9.974;2023-10-09T17:34:42;101678.97;;;15.57;100.00
31062;BME280;17724;53.546;9.974;2023-10-09T17:38:44;101690.19;;;15.72;100.00
31062;BME280;17724;53.546;9.974;2023-10-09T17:42:49;101680.63;;;15.58;100.00
31062;BME280;17724;53.546;9.974;2023-10-09T17:46:53;101696.66;;;15.46;100.00
31062;BME280;17724;53.546;9.974;2023-10-09T17:50:56;101703.22;;;15.30;100.00
31062;BME280;17724;53.546;9.974;2023-10-09T17:54:56;101689.16;;;15.41;100.00
31062;BME280;17724;53.546;9.974;2023-10-09T17:58:57;101694.13;;;15.39;100.00
31062;BME280;17724;53.546;9.974;2023-10-09T18:02:58;101700.56;;;15.50;100.00
31062;BME280;17724;53.546;9.974;2023-10-09T18:06:59;101709.72;;;15.50;100.00
31062;BME280;17724;53.546;9.974;2023-10-09T18:11:00;101712.06;;;15.26;100.00
31062;BME280;17724;53.546;9.974;2023-10-09T18:15:01;101717.41;;;15.38;100.00
31062;BME280;17724;53.546;9.974;2023-10-09T18:19:05;101714.63;;;15.38;100.00
31062;BME280;17724;53.546;9.974;2023-10-09T18:23:07;101722.44;;;15.46;100.00
31062;BME280;17724;53.546;9.974;2023-10-09T18:27:09;101713.81;;;15.38;100.00
31062;BME280;17724;53.546;9.974;2023-10-09T18:31:12;101708.75;;;15.24;100.00
31062;BME280;17724;53.546;9.974;2023-10-09T18:35:13;101709.63;;;15.35;100.00
31062;BME280;17724;53.546;9.974;2023-10-09T18:39:16;101704.69;;;15.42;100.00
31062;BME280;17724;53.546;9.974;2023-10-09T18:43:22;101711.81;;;15.28;100.00
31062;BME280;17724;53.546;9.974;2023-10-09T18:47:23;101711.81;;;15.28;100.00
31062;BME280;17724;53.546;9.974;2023-10-09T18:51:24;101720.16;;;15.33;100.00
31062;BME280;17724;53.546;9.974;2023-10-09T18:55:24;101717.38;;;15.28;100.00
31062;BME280;17724;53.546;9.974;2023-10-09T18:59:27;101716.72;;;15.16;100.00
31062;BME280;17724;53.546;9.974;2023-10-09T19:03:29;101715.31;;;15.13;100.00
31062;BME280;17724;53.546;9.974;2023-10-09T19:07:30;101725.28;;;15.14;100.00
31062;BME280;17724;53.546;9.974;2023-10-09T19:11:31;101720.66;;;15.25;100.00
31062;BME280;17724;53.546;9.974;2023-10-09T19:15:33;101734.41;;;15.10;100.00
31062;BME280;17724;53.546;9.974;2023-10-09T19:19:33;101718.41;;;15.17;100.00
31062;BME280;17724;53.546;9.974;2023-10-09T19:23:39;101717.63;;;15.32;100.00
31062;BME280;17724;53.546;9.974;2023-10-09T19:27:40;101717.63;;;15.32;100.00
31062;BME280;17724;53.546;9.974;2023-10-09T19:31:41;101727.88;;;15.26;100.00
31062;BME280;17724;53.546;9.974;2023-10-09T19:35:42;101729.19;;;15.13;100.00
31062;BME280;17724;53.546;9.974;2023-10-09T19:39:43;101738.63;;;15.17;100.00
31062;BME280;17724;53.546;9.974;2023-10-09T19:43:43;101743.03;;;15.13;100.00
31062;BME280;17724;53.546;9.974;2023-10-09T19:47:44;101738.00;;;15.10;100.00
31062;BME280;17724;53.546;9.974;2023-10-09T19:51:44;101741.66;;;15.16;100.00
31062;BME280;17724;53.546;9.974;2023-10-09T19:55:45;101744.69;;;15.14;100.00
31062;BME280;17724;53.546;9.974;2023-10-09T19:59:46;101734.22;;;15.21;100.00
31062;BME280;17724;53.546;9.974;2023-10-09T20:03:48;101714.69;;;15.01;100.00
31062;BME280;17724;53.546;9.974;2023-10-09T20:07:48;101738.19;;;14.98;100.00
31062;BME280;17724;53.546;9.974;2023-10-09T20:11:49;101741.88;;;15.04;100.00
31062;BME280;17724;53.546;9.974;2023-10-09T20:15:56;101749.38;;;15.09;100.00
31062;BME280;17724;53.546;9.974;2023-10-09T20:19:57;101749.56;;;14.97;100.00
31062;BME280;17724;53.546;9.974;2023-10-09T20:23:57;101755.50;;;15.16;100.00
31062;BME280;17724;53.546;9.974;2023-10-09T20:28:00;101758.22;;;15.06;100.00
31062;BME280;17724;53.546;9.974;2023-10-09T20:32:03;101752.22;;;15.24;100.00
31062;BME280;17724;53.546;9.974;2023-10-09T20:36:07;101756.16;;;15.28;100.00
31062;BME280;17724;53.546;9.974;2023-10-09T20:40:15;101752.63;;;15.43;100.00
31062;BME280;17724;53.546;9.974;2023-10-09T20:44:18;101756.53;;;15.47;100.00
31062;BME280;17724;53.546;9.974;2023-10-09T20:48:18;101772.56;;;15.40;100.00
31062;BME280;17724;53.546;9.974;2023-10-09T20:52:19;101774.50;;;15.39;100.00
31062;BME280;17724;53.546;9.974;2023-10-09T20:56:24;101773.66;;;15.34;100.00
31062;BME280;17724;53.546;9.974;2023-10-09T21:00:27;101771.41;;;15.31;100.00
31062;BME280;17724;53.546;9.974;2023-10-09T21:04:32;101776.91;;;15.25;100.00
31062;BME280;17724;53.546;9.974;2023-10-09T21:08:32;101785.69;;;15.12;100.00